Tullahoma, Tennessee
Current Conditions -  °F | °C
As of 4:35 AM on Thursday 27 Nov 2014 (Local Time) from KTHA Reporting Station
Overcast Overcast  
Wind Chill: 27°   Ceiling: 1800
Heat Index: 36°   Visibility: 9mi
Dew Point: 32°   Wind: 13mph
Humidity: 87%   Direction: 300°WNW
Pressure: 30.17"   Gusts: NA
Location:  35.36°N, 86.21°W
Report Text: KTHA 271035Z AUTO 30011KT 9SM OVC018 02/00 A3017 RMK
Loading
Personal Weather Stations






























Interactive Weather Map New forecast layout! Learn more

10-Day Weather Forecast

Advertisements
Track Severe Weather on mobile